Sage Lab — WDH3681 — position and weather

sailwx.info

Track history (hours):
 
Tides and Currents Weather Stations Pressure Air Temp Water Temp Dewpoint Dewpoint Depression Visibility Wind Speed Wind Dir Waves Ship Positions

Sage Lab

Owner: Laborde Marine Management, Morgan City, LA. More information available from US FCC via Universal Licensing System and Coast Guard Vessel Documentation Center.

Last reported at 2018-Jan-26 03:11 UTC. Time now 2018-Feb-25 23:43 UTC.
Position N 29°41' W 092°15'.
Warning: this ship's position is 30 days out of date.

Length 46 m; draft 11.5 m.

Type: Other ship. MMSI: 366951840.

Date/timePositionNaut miles runAvg speedWind from/ knotsBaromVisibWave heightAir tempDewpointWater temp
2018-Jan-26 03:11N 29°41' W 092°15'313.7
2018-Jan-26 02:59N 29°44' W 092°14'4 8.3
2018-Jan-26 02:29N 29°47' W 092°11'0 0.0
2018-Jan-26 01:59N 29°47' W 092°11'0 0.0
2018-Jan-26 01:27N 29°47' W 092°11'0 0.0
2018-Jan-26 00:57N 29°47' W 092°11'2 4.2
2018-Jan-26 00:29N 29°47' W 092°09'1 0.9
2018-Jan-25 23:55N 29°48' W 092°09'0 0.1
2018-Jan-25 23:29N 29°48' W 092°09'0 0.0
2018-Jan-25 22:59N 29°48' W 092°09'1 2.1
2018-Jan-25 22:29N 29°47' W 092°10'10 0.8
2018-Jan-25 10:41N 29°39' W 092°16'211.3
2018-Jan-25 10:29N 29°41' W 092°15'815.1
2018-Jan-25 09:59N 29°47' W 092°10'1 2.7
2018-Jan-25 09:29N 29°48' W 092°09'0 0.2
2018-Jan-25 08:55N 29°47' W 092°09'4 9.4
2018-Jan-25 08:29N 29°45' W 092°12'7 0.6
2018-Jan-24 20:22N 29°39' W 092°16'514.4
2018-Jan-24 20:01N 29°44' W 092°15'611.7
2018-Jan-24 19:30N 29°47' W 092°09'1 1.2
2018-Jan-24 19:00N 29°47' W 092°09'0 0.0
2018-Jan-24 18:30N 29°47' W 092°09'0 0.0
2018-Jan-24 18:00N 29°47' W 092°09'0 0.1
2018-Jan-24 17:30N 29°48' W 092°09'0 0.0
2018-Jan-24 17:00N 29°48' W 092°09'0 0.0
2018-Jan-24 16:30N 29°48' W 092°09'0 0.0
2018-Jan-24 16:00N 29°48' W 092°09'0 0.0
2018-Jan-24 15:30N 29°48' W 092°09'0 0.0
2018-Jan-24 15:00N 29°48' W 092°09'0 0.0
2018-Jan-24 14:30N 29°48' W 092°09'0 0.0
2018-Jan-24 14:00N 29°48' W 092°09'0 0.1
2018-Jan-24 13:30N 29°48' W 092°09'0 0.0
2018-Jan-24 13:00N 29°48' W 092°09'0 0.0
2018-Jan-24 12:30N 29°48' W 092°09'0 0.0
2018-Jan-24 12:00N 29°48' W 092°09'0 0.0
2018-Jan-24 11:30N 29°48' W 092°09'0 0.0
2018-Jan-24 11:00N 29°48' W 092°09'0 0.0
2018-Jan-24 10:30N 29°48' W 092°09'0 0.0
2018-Jan-24 10:00N 29°48' W 092°09'0 0.0
2018-Jan-24 09:30N 29°48' W 092°09'0 0.0
2018-Jan-24 09:00N 29°48' W 092°09'0 0.0
2018-Jan-24 08:30N 29°48' W 092°09'0 0.0
2018-Jan-24 08:00N 29°48' W 092°09'0 0.0
2018-Jan-24 07:30N 29°48' W 092°09'0 0.0
2018-Jan-24 07:00N 29°48' W 092°09'0 0.0
2018-Jan-24 06:30N 29°48' W 092°09'0 0.0
2018-Jan-24 06:00N 29°48' W 092°09'0 0.0
2018-Jan-24 05:30N 29°48' W 092°09'0 0.0
2018-Jan-24 05:00N 29°48' W 092°09'0 0.0
2018-Jan-24 04:30N 29°48' W 092°09'0 0.0
2018-Jan-24 04:00N 29°48' W 092°09'0 0.0
2018-Jan-24 03:30N 29°48' W 092°09'0 0.0
2018-Jan-24 03:00N 29°48' W 092°09'0 0.0
2018-Jan-24 02:30N 29°48' W 092°09'0 0.0
2018-Jan-24 02:00N 29°48' W 092°09'0 0.0
2018-Jan-24 01:30N 29°48' W 092°09'0 0.1
2018-Jan-24 01:00N 29°48' W 092°09'0 0.0
2018-Jan-24 00:30N 29°48' W 092°09'0 0.0
2018-Jan-24 00:00N 29°48' W 092°09'0 0.0
2018-Jan-23 23:30N 29°48' W 092°09'0 0.1
2018-Jan-23 23:00N 29°48' W 092°09'0 0.0
2018-Jan-23 22:30N 29°48' W 092°09'0 0.0
2018-Jan-23 22:00N 29°48' W 092°09'0 0.0
2018-Jan-23 21:30N 29°48' W 092°09'0 0.0
2018-Jan-23 21:00N 29°48' W 092°09'0 0.0
2018-Jan-23 20:30N 29°48' W 092°09'0 0.0
2018-Jan-23 20:00N 29°48' W 092°09'0 0.0
2018-Jan-23 19:30N 29°48' W 092°09'0 0.0
2018-Jan-23 19:00N 29°48' W 092°09'0 0.0
2018-Jan-23 18:30N 29°47' W 092°09'4 8.9
2018-Jan-23 18:00N 29°45' W 092°13'9 0.9
2018-Jan-23 08:10N 29°37' W 092°17'320.0
2018-Jan-23 08:00N 29°40' W 092°15'816.3
2018-Jan-23 07:31N 29°47' W 092°10'1 2.6
2018-Jan-23 06:59N 29°47' W 092°09'0 0.0
2018-Jan-23 06:31N 29°47' W 092°09'0 0.0
2018-Jan-23 05:55N 29°47' W 092°09'0 0.0
2018-Jan-23 05:31N 29°47' W 092°09'0 0.0
2018-Jan-23 05:01N 29°47' W 092°09'0 0.0
2018-Jan-23 04:30N 29°47' W 092°09'0 0.0
2018-Jan-23 03:59N 29°47' W 092°09'0 0.0
2018-Jan-23 03:30N 29°47' W 092°09'0 0.0
2018-Jan-23 03:01N 29°47' W 092°09'0 0.0
2018-Jan-23 02:30N 29°47' W 092°09'0 0.0
2018-Jan-23 02:00N 29°47' W 092°09'0 0.0
2018-Jan-23 01:30N 29°47' W 092°09'0 0.1
2018-Jan-23 00:58N 29°48' W 092°09'0 0.0
2018-Jan-23 00:31N 29°48' W 092°09'0 0.0
2018-Jan-23 00:01N 29°48' W 092°09'0 0.0
2018-Jan-22 23:31N 29°48' W 092°09'0 0.0
2018-Jan-22 23:00N 29°48' W 092°09'0 0.0
2018-Jan-22 22:30N 29°48' W 092°09'0 0.0
2018-Jan-22 22:00N 29°48' W 092°09'0 0.1
2018-Jan-22 21:30N 29°47' W 092°09'0 0.0
2018-Jan-22 20:58N 29°47' W 092°09'0 0.0
2018-Jan-22 20:31N 29°47' W 092°09'0 0.0
2018-Jan-22 20:00N 29°47' W 092°09'0 0.0
2018-Jan-22 19:31N 29°47' W 092°09'0 0.0
2018-Jan-22 19:00N 29°47' W 092°09'0 0.0
2018-Jan-22 18:31N 29°47' W 092°09'0 0.0
2018-Jan-22 18:01N 29°47' W 092°09'0 0.0
2018-Jan-22 17:30N 29°47' W 092°09'0 0.0
2018-Jan-22 17:01N 29°47' W 092°09'0 0.0
2018-Jan-22 16:30N 29°47' W 092°09'0 0.0
2018-Jan-22 16:01N 29°47' W 092°09'0 0.0
2018-Jan-22 15:30N 29°47' W 092°09'0 0.0
2018-Jan-22 15:01N 29°47' W 092°09'0 0.0
2018-Jan-22 14:30N 29°47' W 092°09'0 0.0
2018-Jan-22 14:00N 29°47' W 092°09'0 0.0
2018-Jan-22 13:29N 29°47' W 092°09'0 0.0
2018-Jan-22 13:01N 29°47' W 092°09'0 0.0
2018-Jan-22 12:30N 29°47' W 092°09'0 0.0
2018-Jan-22 12:00N 29°47' W 092°09'0 0.0
2018-Jan-22 11:29N 29°47' W 092°09'0 0.0
2018-Jan-22 11:01N 29°47' W 092°09'0 0.0
2018-Jan-22 10:30N 29°47' W 092°09'0 0.0
2018-Jan-22 10:00N 29°47' W 092°09'0 0.0
2018-Jan-22 09:31N 29°47' W 092°09'0 0.0
2018-Jan-22 09:00N 29°47' W 092°09'0 0.0
2018-Jan-22 08:29N 29°47' W 092°09'0 0.0
2018-Jan-22 07:59N 29°47' W 092°09'0 0.0
2018-Jan-22 07:31N 29°47' W 092°09'0 0.0
2018-Jan-22 07:01N 29°47' W 092°09'0 0.0
2018-Jan-22 06:30N 29°47' W 092°09'0 0.0
2018-Jan-22 06:00N 29°47' W 092°09'0 0.0
2018-Jan-22 05:31N 29°47' W 092°09'0 0.0
2018-Jan-22 05:00N 29°47' W 092°09'0 0.0
2018-Jan-22 04:30N 29°47' W 092°09'0 0.0
2018-Jan-22 04:00N 29°47' W 092°09'0 0.0
2018-Jan-22 03:30N 29°47' W 092°09'0 0.0
2018-Jan-22 03:00N 29°47' W 092°09'0 0.0
2018-Jan-22 02:31N 29°47' W 092°09'0 0.0
2018-Jan-22 02:00N 29°47' W 092°09'0 0.0
2018-Jan-22 01:30N 29°47' W 092°09'0 0.0
2018-Jan-22 01:00N 29°47' W 092°09'0 0.0
2018-Jan-22 00:31N 29°47' W 092°09'0 0.0
2018-Jan-22 00:00N 29°47' W 092°09'0 0.0
2018-Jan-21 23:31N 29°47' W 092°09'0 0.0
2018-Jan-21 23:00N 29°47' W 092°09'0 0.0
2018-Jan-21 22:30N 29°47' W 092°09'0 0.0
2018-Jan-21 22:00N 29°47' W 092°09'0 0.0
2018-Jan-21 21:30N 29°47' W 092°09'0 0.0
2018-Jan-21 21:00N 29°47' W 092°09'0 0.0
2018-Jan-21 20:29N 29°47' W 092°09'0 0.0
2018-Jan-21 20:00N 29°47' W 092°09'0 0.0
2018-Jan-21 19:30N 29°47' W 092°09'0 0.0
2018-Jan-21 19:00N 29°47' W 092°09'0 0.0
2018-Jan-21 18:30N 29°47' W 092°09'0 0.0
2018-Jan-21 18:00N 29°47' W 092°09'0 0.0
2018-Jan-21 17:30N 29°47' W 092°09'0 0.0
2018-Jan-21 17:00N 29°47' W 092°09'0 0.0
2018-Jan-21 16:30N 29°47' W 092°09'0 0.1
2018-Jan-21 16:00N 29°48' W 092°09'0 0.1
2018-Jan-21 15:30N 29°48' W 092°09'0 0.1
2018-Jan-21 15:00N 29°48' W 092°09'0 0.0
2018-Jan-21 14:30N 29°48' W 092°09'0 0.0
2018-Jan-21 14:00N 29°48' W 092°09'0 0.0
2018-Jan-21 13:30N 29°48' W 092°09'0 0.0
2018-Jan-21 13:00N 29°48' W 092°09'0 0.0
2018-Jan-21 12:30N 29°48' W 092°09'0 0.0
2018-Jan-21 12:00N 29°48' W 092°09'0 0.0
2018-Jan-21 11:30N 29°48' W 092°09'0 0.0
2018-Jan-21 11:00N 29°48' W 092°09'0 0.0
2018-Jan-21 10:30N 29°48' W 092°09'0 0.0
2018-Jan-21 10:00N 29°48' W 092°09'0 0.0
2018-Jan-21 09:30N 29°48' W 092°09'0 0.0
2018-Jan-21 09:00N 29°48' W 092°09'0 0.0
2018-Jan-21 08:30N 29°48' W 092°09'0 0.0
2018-Jan-21 07:59N 29°48' W 092°09'0 0.0
2018-Jan-21 07:30N 29°48' W 092°09'0 0.0
2018-Jan-21 07:00N 29°48' W 092°09'0 0.0
2018-Jan-21 06:30N 29°48' W 092°09'0 0.0
2018-Jan-21 06:00N 29°48' W 092°09'0 0.0
2018-Jan-21 05:30N 29°48' W 092°09'0 0.0
2018-Jan-21 05:00N 29°48' W 092°09'0 0.0
2018-Jan-21 04:29N 29°48' W 092°09'0 0.0
2018-Jan-21 04:00N 29°48' W 092°09'0 0.0
2018-Jan-21 03:30N 29°48' W 092°09'2 3.9
2018-Jan-21 03:01N 29°46' W 092°10'8 0.9
2018-Jan-20 17:40N 29°39' W 092°16'313.6
2018-Jan-20 17:29N 29°42' W 092°15'612.7
2018-Jan-20 17:00N 29°46' W 092°10'2 3.7
2018-Jan-20 16:29N 29°47' W 092°09'0 0.0
2018-Jan-20 16:00N 29°47' W 092°09'0 0.0
2018-Jan-20 15:30N 29°47' W 092°09'0 0.0
2018-Jan-20 15:00N 29°47' W 092°09'0 0.0
2018-Jan-20 14:30N 29°47' W 092°09'0 0.0
2018-Jan-20 14:00N 29°47' W 092°09'0 0.1
2018-Jan-20 13:30N 29°47' W 092°09'0 0.0
2018-Jan-20 13:00N 29°47' W 092°09'0 0.0
2018-Jan-20 12:30N 29°47' W 092°09'0 0.0
2018-Jan-20 12:00N 29°47' W 092°09'0 0.0
2018-Jan-20 11:30N 29°47' W 092°09'0 0.0
2018-Jan-20 11:00N 29°47' W 092°09'0 0.0
2018-Jan-20 10:30N 29°47' W 092°09'0 0.0
2018-Jan-20 10:00N 29°47' W 092°09'0 0.0
2018-Jan-20 09:30N 29°47' W 092°09'0 0.0
2018-Jan-20 09:00N 29°47' W 092°09'0 0.0
2018-Jan-20 08:30N 29°47' W 092°09'0 0.0
2018-Jan-20 08:00N 29°47' W 092°09'2 4.1
2018-Jan-20 07:30N 29°46' W 092°11'11 0.7
2018-Jan-19 14:36N 29°36' W 092°17'220.1
2018-Jan-19 14:29N 29°38' W 092°16'918.5
2018-Jan-19 14:01N 29°46' W 092°11'3 4.9
2018-Jan-19 13:30N 29°47' W 092°09'0 0.0
2018-Jan-19 13:00N 29°47' W 092°09'0 0.1
2018-Jan-19 12:31N 29°47' W 092°09'0 0.1
2018-Jan-19 12:01N 29°47' W 092°09'0 0.0
2018-Jan-19 11:31N 29°47' W 092°09'0 0.0
2018-Jan-19 11:01N 29°47' W 092°09'0 0.0
2018-Jan-19 10:30N 29°47' W 092°09'0 0.0
2018-Jan-19 10:01N 29°47' W 092°09'0 0.0
2018-Jan-19 09:31N 29°47' W 092°09'0 0.0
2018-Jan-19 09:00N 29°47' W 092°09'0 0.0
2018-Jan-19 08:30N 29°47' W 092°09'0 0.0
2018-Jan-19 08:01N 29°47' W 092°09'0 0.0
2018-Jan-19 07:30N 29°47' W 092°09'0 0.0
2018-Jan-19 07:01N 29°47' W 092°09'0 0.0
2018-Jan-19 06:31N 29°47' W 092°09'0 0.0
2018-Jan-19 06:01N 29°47' W 092°09'0 0.0
2018-Jan-19 05:30N 29°47' W 092°09'0 0.0
2018-Jan-19 05:01N 29°47' W 092°09'0 0.0
2018-Jan-19 04:31N 29°47' W 092°09'0 0.0
2018-Jan-19 04:01N 29°47' W 092°09'0 0.0
2018-Jan-19 03:31N 29°47' W 092°09'0 0.0
2018-Jan-19 03:00N 29°47' W 092°09'2 4.3
2018-Jan-19 02:30N 29°47' W 092°11'0 0.0
2018-Jan-19 02:01N 29°47' W 092°11'0 0.0
2018-Jan-19 01:30N 29°47' W 092°11'0 0.0
2018-Jan-19 01:00N 29°47' W 092°11'2 4.4
2018-Jan-19 00:31N 29°48' W 092°09'0 0.0
2018-Jan-19 00:01N 29°48' W 092°09'2 3.4
2018-Jan-18 23:31N 29°47' W 092°10'611.5
2018-Jan-18 23:00N 29°42' W 092°15'4 0.4
2018-Jan-18 13:48N 29°39' W 092°16'619.6
2018-Jan-18 13:30N 29°44' W 092°14'510.6
2018-Jan-18 13:00N 29°47' W 092°09'0 0.3
2018-Jan-18 12:30N 29°48' W 092°09'0 0.0
2018-Jan-18 12:00N 29°48' W 092°09'0 0.0
2018-Jan-18 11:30N 29°48' W 092°09'0 0.2
2018-Jan-18 10:58N 29°47' W 092°09'0 0.0
2018-Jan-18 10:30N 29°47' W 092°09'0 0.0
2018-Jan-18 10:00N 29°47' W 092°09'0 0.0
2018-Jan-18 09:30N 29°47' W 092°09'0 0.0
2018-Jan-18 09:00N 29°47' W 092°09'3 6.6
2018-Jan-18 08:30N 29°46' W 092°12'612.5
2018-Jan-18 08:00N 29°40' W 092°15'  
Track history (hours):
 
Tides and Currents Weather Stations Pressure Air Temp Water Temp Dewpoint Dewpoint Depression Visibility Wind Speed Wind Dir Waves Ship Positions

Sage Lab

Owner: Laborde Marine Management, Morgan City, LA. More information available from US FCC via Universal Licensing System and Coast Guard Vessel Documentation Center.

Last reported at 2018-Jan-26 03:11 UTC. Time now 2018-Feb-25 23:43 UTC.
Position N 29°41' W 092°15'.
Warning: this ship's position is 30 days out of date.

Length 46 m; draft 11.5 m.

Type: Other ship. MMSI: 366951840.

Date/timePositionNaut miles runAvg speedWind from/ knotsBaromVisibWave heightAir tempDewpointWater temp
2018-Jan-26 03:11N 29°41' W 092°15'313.7
2018-Jan-26 02:59N 29°44' W 092°14'4 8.3
2018-Jan-26 02:29N 29°47' W 092°11'0 0.0
2018-Jan-26 01:59N 29°47' W 092°11'0 0.0
2018-Jan-26 01:27N 29°47' W 092°11'0 0.0
2018-Jan-26 00:57N 29°47' W 092°11'2 4.2
2018-Jan-26 00:29N 29°47' W 092°09'1 0.9
2018-Jan-25 23:55N 29°48' W 092°09'0 0.1
2018-Jan-25 23:29N 29°48' W 092°09'0 0.0
2018-Jan-25 22:59N 29°48' W 092°09'1 2.1
2018-Jan-25 22:29N 29°47' W 092°10'10 0.8
2018-Jan-25 10:41N 29°39' W 092°16'211.3
2018-Jan-25 10:29N 29°41' W 092°15'815.1
2018-Jan-25 09:59N 29°47' W 092°10'1 2.7
2018-Jan-25 09:29N 29°48' W 092°09'0 0.2
2018-Jan-25 08:55N 29°47' W 092°09'4 9.4
2018-Jan-25 08:29N 29°45' W 092°12'7 0.6
2018-Jan-24 20:22N 29°39' W 092°16'514.4
2018-Jan-24 20:01N 29°44' W 092°15'611.7
2018-Jan-24 19:30N 29°47' W 092°09'1 1.2
2018-Jan-24 19:00N 29°47' W 092°09'0 0.0
2018-Jan-24 18:30N 29°47' W 092°09'0 0.0
2018-Jan-24 18:00N 29°47' W 092°09'0 0.1
2018-Jan-24 17:30N 29°48' W 092°09'0 0.0
2018-Jan-24 17:00N 29°48' W 092°09'0 0.0
2018-Jan-24 16:30N 29°48' W 092°09'0 0.0
2018-Jan-24 16:00N 29°48' W 092°09'0 0.0
2018-Jan-24 15:30N 29°48' W 092°09'0 0.0
2018-Jan-24 15:00N 29°48' W 092°09'0 0.0
2018-Jan-24 14:30N 29°48' W 092°09'0 0.0
2018-Jan-24 14:00N 29°48' W 092°09'0 0.1
2018-Jan-24 13:30N 29°48' W 092°09'0 0.0
2018-Jan-24 13:00N 29°48' W 092°09'0 0.0
2018-Jan-24 12:30N 29°48' W 092°09'0 0.0
2018-Jan-24 12:00N 29°48' W 092°09'0 0.0
2018-Jan-24 11:30N 29°48' W 092°09'0 0.0
2018-Jan-24 11:00N 29°48' W 092°09'0 0.0
2018-Jan-24 10:30N 29°48' W 092°09'0 0.0
2018-Jan-24 10:00N 29°48' W 092°09'0 0.0
2018-Jan-24 09:30N 29°48' W 092°09'0 0.0
2018-Jan-24 09:00N 29°48' W 092°09'0 0.0
2018-Jan-24 08:30N 29°48' W 092°09'0 0.0
2018-Jan-24 08:00N 29°48' W 092°09'0 0.0
2018-Jan-24 07:30N 29°48' W 092°09'0 0.0
2018-Jan-24 07:00N 29°48' W 092°09'0 0.0
2018-Jan-24 06:30N 29°48' W 092°09'0 0.0
2018-Jan-24 06:00N 29°48' W 092°09'0 0.0
2018-Jan-24 05:30N 29°48' W 092°09'0 0.0
2018-Jan-24 05:00N 29°48' W 092°09'0 0.0
2018-Jan-24 04:30N 29°48' W 092°09'0 0.0
2018-Jan-24 04:00N 29°48' W 092°09'0 0.0
2018-Jan-24 03:30N 29°48' W 092°09'0 0.0
2018-Jan-24 03:00N 29°48' W 092°09'0 0.0
2018-Jan-24 02:30N 29°48' W 092°09'0 0.0
2018-Jan-24 02:00N 29°48' W 092°09'0 0.0
2018-Jan-24 01:30N 29°48' W 092°09'0 0.1
2018-Jan-24 01:00N 29°48' W 092°09'0 0.0
2018-Jan-24 00:30N 29°48' W 092°09'0 0.0
2018-Jan-24 00:00N 29°48' W 092°09'0 0.0
2018-Jan-23 23:30N 29°48' W 092°09'0 0.1
2018-Jan-23 23:00N 29°48' W 092°09'0 0.0
2018-Jan-23 22:30N 29°48' W 092°09'0 0.0
2018-Jan-23 22:00N 29°48' W 092°09'0 0.0
2018-Jan-23 21:30N 29°48' W 092°09'0 0.0
2018-Jan-23 21:00N 29°48' W 092°09'0 0.0
2018-Jan-23 20:30N 29°48' W 092°09'0 0.0
2018-Jan-23 20:00N 29°48' W 092°09'0 0.0
2018-Jan-23 19:30N 29°48' W 092°09'0 0.0
2018-Jan-23 19:00N 29°48' W 092°09'0 0.0
2018-Jan-23 18:30N 29°47' W 092°09'4 8.9
2018-Jan-23 18:00N 29°45' W 092°13'9 0.9
2018-Jan-23 08:10N 29°37' W 092°17'320.0
2018-Jan-23 08:00N 29°40' W 092°15'816.3
2018-Jan-23 07:31N 29°47' W 092°10'1 2.6
2018-Jan-23 06:59N 29°47' W 092°09'0 0.0
2018-Jan-23 06:31N 29°47' W 092°09'0 0.0
2018-Jan-23 05:55N 29°47' W 092°09'0 0.0
2018-Jan-23 05:31N 29°47' W 092°09'0 0.0
2018-Jan-23 05:01N 29°47' W 092°09'0 0.0
2018-Jan-23 04:30N 29°47' W 092°09'0 0.0
2018-Jan-23 03:59N 29°47' W 092°09'0 0.0
2018-Jan-23 03:30N 29°47' W 092°09'0 0.0
2018-Jan-23 03:01N 29°47' W 092°09'0 0.0
2018-Jan-23 02:30N 29°47' W 092°09'0 0.0
2018-Jan-23 02:00N 29°47' W 092°09'0 0.0
2018-Jan-23 01:30N 29°47' W 092°09'0 0.1
2018-Jan-23 00:58N 29°48' W 092°09'0 0.0
2018-Jan-23 00:31N 29°48' W 092°09'0 0.0
2018-Jan-23 00:01N 29°48' W 092°09'0 0.0
2018-Jan-22 23:31N 29°48' W 092°09'0 0.0
2018-Jan-22 23:00N 29°48' W 092°09'0 0.0
2018-Jan-22 22:30N 29°48' W 092°09'0 0.0
2018-Jan-22 22:00N 29°48' W 092°09'0 0.1
2018-Jan-22 21:30N 29°47' W 092°09'0 0.0
2018-Jan-22 20:58N 29°47' W 092°09'0 0.0
2018-Jan-22 20:31N 29°47' W 092°09'0 0.0
2018-Jan-22 20:00N 29°47' W 092°09'0 0.0
2018-Jan-22 19:31N 29°47' W 092°09'0 0.0
2018-Jan-22 19:00N 29°47' W 092°09'0 0.0
2018-Jan-22 18:31N 29°47' W 092°09'0 0.0
2018-Jan-22 18:01N 29°47' W 092°09'0 0.0
2018-Jan-22 17:30N 29°47' W 092°09'0 0.0
2018-Jan-22 17:01N 29°47' W 092°09'0 0.0
2018-Jan-22 16:30N 29°47' W 092°09'0 0.0
2018-Jan-22 16:01N 29°47' W 092°09'0 0.0
2018-Jan-22 15:30N 29°47' W 092°09'0 0.0
2018-Jan-22 15:01N 29°47' W 092°09'0 0.0
2018-Jan-22 14:30N 29°47' W 092°09'0 0.0
2018-Jan-22 14:00N 29°47' W 092°09'0 0.0
2018-Jan-22 13:29N 29°47' W 092°09'0 0.0
2018-Jan-22 13:01N 29°47' W 092°09'0 0.0
2018-Jan-22 12:30N 29°47' W 092°09'0 0.0
2018-Jan-22 12:00N 29°47' W 092°09'0 0.0
2018-Jan-22 11:29N 29°47' W 092°09'0 0.0
2018-Jan-22 11:01N 29°47' W 092°09'0 0.0
2018-Jan-22 10:30N 29°47' W 092°09'0 0.0
2018-Jan-22 10:00N 29°47' W 092°09'0 0.0
2018-Jan-22 09:31N 29°47' W 092°09'0 0.0
2018-Jan-22 09:00N 29°47' W 092°09'0 0.0
2018-Jan-22 08:29N 29°47' W 092°09'0 0.0
2018-Jan-22 07:59N 29°47' W 092°09'0 0.0
2018-Jan-22 07:31N 29°47' W 092°09'0 0.0
2018-Jan-22 07:01N 29°47' W 092°09'0 0.0
2018-Jan-22 06:30N 29°47' W 092°09'0 0.0
2018-Jan-22 06:00N 29°47' W 092°09'0 0.0
2018-Jan-22 05:31N 29°47' W 092°09'0 0.0
2018-Jan-22 05:00N 29°47' W 092°09'0 0.0
2018-Jan-22 04:30N 29°47' W 092°09'0 0.0
2018-Jan-22 04:00N 29°47' W 092°09'0 0.0
2018-Jan-22 03:30N 29°47' W 092°09'0 0.0
2018-Jan-22 03:00N 29°47' W 092°09'0 0.0
2018-Jan-22 02:31N 29°47' W 092°09'0 0.0
2018-Jan-22 02:00N 29°47' W 092°09'0 0.0
2018-Jan-22 01:30N 29°47' W 092°09'0 0.0
2018-Jan-22 01:00N 29°47' W 092°09'0 0.0
2018-Jan-22 00:31N 29°47' W 092°09'0 0.0
2018-Jan-22 00:00N 29°47' W 092°09'0 0.0
2018-Jan-21 23:31N 29°47' W 092°09'0 0.0
2018-Jan-21 23:00N 29°47' W 092°09'0 0.0
2018-Jan-21 22:30N 29°47' W 092°09'0 0.0
2018-Jan-21 22:00N 29°47' W 092°09'0 0.0
2018-Jan-21 21:30N 29°47' W 092°09'0 0.0
2018-Jan-21 21:00N 29°47' W 092°09'0 0.0
2018-Jan-21 20:29N 29°47' W 092°09'0 0.0
2018-Jan-21 20:00N 29°47' W 092°09'0 0.0
2018-Jan-21 19:30N 29°47' W 092°09'0 0.0
2018-Jan-21 19:00N 29°47' W 092°09'0 0.0
2018-Jan-21 18:30N 29°47' W 092°09'0 0.0
2018-Jan-21 18:00N 29°47' W 092°09'0 0.0
2018-Jan-21 17:30N 29°47' W 092°09'0 0.0
2018-Jan-21 17:00N 29°47' W 092°09'0 0.0
2018-Jan-21 16:30N 29°47' W 092°09'0 0.1
2018-Jan-21 16:00N 29°48' W 092°09'0 0.1
2018-Jan-21 15:30N 29°48' W 092°09'0 0.1
2018-Jan-21 15:00N 29°48' W 092°09'0 0.0
2018-Jan-21 14:30N 29°48' W 092°09'0 0.0
2018-Jan-21 14:00N 29°48' W 092°09'0 0.0
2018-Jan-21 13:30N 29°48' W 092°09'0 0.0
2018-Jan-21 13:00N 29°48' W 092°09'0 0.0
2018-Jan-21 12:30N 29°48' W 092°09'0 0.0
2018-Jan-21 12:00N 29°48' W 092°09'0 0.0
2018-Jan-21 11:30N 29°48' W 092°09'0 0.0
2018-Jan-21 11:00N 29°48' W 092°09'0 0.0
2018-Jan-21 10:30N 29°48' W 092°09'0 0.0
2018-Jan-21 10:00N 29°48' W 092°09'0 0.0
2018-Jan-21 09:30N 29°48' W 092°09'0 0.0
2018-Jan-21 09:00N 29°48' W 092°09'0 0.0
2018-Jan-21 08:30N 29°48' W 092°09'0 0.0
2018-Jan-21 07:59N 29°48' W 092°09'0 0.0
2018-Jan-21 07:30N 29°48' W 092°09'0 0.0
2018-Jan-21 07:00N 29°48' W 092°09'0 0.0
2018-Jan-21 06:30N 29°48' W 092°09'0 0.0
2018-Jan-21 06:00N 29°48' W 092°09'0 0.0
2018-Jan-21 05:30N 29°48' W 092°09'0 0.0
2018-Jan-21 05:00N 29°48' W 092°09'0 0.0
2018-Jan-21 04:29N 29°48' W 092°09'0 0.0
2018-Jan-21 04:00N 29°48' W 092°09'0 0.0
2018-Jan-21 03:30N 29°48' W 092°09'2 3.9
2018-Jan-21 03:01N 29°46' W 092°10'8 0.9
2018-Jan-20 17:40N 29°39' W 092°16'313.6
2018-Jan-20 17:29N 29°42' W 092°15'612.7
2018-Jan-20 17:00N 29°46' W 092°10'2 3.7
2018-Jan-20 16:29N 29°47' W 092°09'0 0.0
2018-Jan-20 16:00N 29°47' W 092°09'0 0.0
2018-Jan-20 15:30N 29°47' W 092°09'0 0.0
2018-Jan-20 15:00N 29°47' W 092°09'0 0.0
2018-Jan-20 14:30N 29°47' W 092°09'0 0.0
2018-Jan-20 14:00N 29°47' W 092°09'0 0.1
2018-Jan-20 13:30N 29°47' W 092°09'0 0.0
2018-Jan-20 13:00N 29°47' W 092°09'0 0.0
2018-Jan-20 12:30N 29°47' W 092°09'0 0.0
2018-Jan-20 12:00N 29°47' W 092°09'0 0.0
2018-Jan-20 11:30N 29°47' W 092°09'0 0.0
2018-Jan-20 11:00N 29°47' W 092°09'0 0.0
2018-Jan-20 10:30N 29°47' W 092°09'0 0.0
2018-Jan-20 10:00N 29°47' W 092°09'0 0.0
2018-Jan-20 09:30N 29°47' W 092°09'0 0.0
2018-Jan-20 09:00N 29°47' W 092°09'0 0.0
2018-Jan-20 08:30N 29°47' W 092°09'0 0.0
2018-Jan-20 08:00N 29°47' W 092°09'2 4.1
2018-Jan-20 07:30N 29°46' W 092°11'11 0.7
2018-Jan-19 14:36N 29°36' W 092°17'220.1
2018-Jan-19 14:29N 29°38' W 092°16'918.5
2018-Jan-19 14:01N 29°46' W 092°11'3 4.9
2018-Jan-19 13:30N 29°47' W 092°09'0 0.0
2018-Jan-19 13:00N 29°47' W 092°09'0 0.1
2018-Jan-19 12:31N 29°47' W 092°09'0 0.1
2018-Jan-19 12:01N 29°47' W 092°09'0 0.0
2018-Jan-19 11:31N 29°47' W 092°09'0 0.0
2018-Jan-19 11:01N 29°47' W 092°09'0 0.0
2018-Jan-19 10:30N 29°47' W 092°09'0 0.0
2018-Jan-19 10:01N 29°47' W 092°09'0 0.0
2018-Jan-19 09:31N 29°47' W 092°09'0 0.0
2018-Jan-19 09:00N 29°47' W 092°09'0 0.0
2018-Jan-19 08:30N 29°47' W 092°09'0 0.0
2018-Jan-19 08:01N 29°47' W 092°09'0 0.0
2018-Jan-19 07:30N 29°47' W 092°09'0 0.0
2018-Jan-19 07:01N 29°47' W 092°09'0 0.0
2018-Jan-19 06:31N 29°47' W 092°09'0 0.0
2018-Jan-19 06:01N 29°47' W 092°09'0 0.0
2018-Jan-19 05:30N 29°47' W 092°09'0 0.0
2018-Jan-19 05:01N 29°47' W 092°09'0 0.0
2018-Jan-19 04:31N 29°47' W 092°09'0 0.0
2018-Jan-19 04:01N 29°47' W 092°09'0 0.0
2018-Jan-19 03:31N 29°47' W 092°09'0 0.0
2018-Jan-19 03:00N 29°47' W 092°09'2 4.3
2018-Jan-19 02:30N 29°47' W 092°11'0 0.0
2018-Jan-19 02:01N 29°47' W 092°11'0 0.0
2018-Jan-19 01:30N 29°47' W 092°11'0 0.0
2018-Jan-19 01:00N 29°47' W 092°11'2 4.4
2018-Jan-19 00:31N 29°48' W 092°09'0 0.0
2018-Jan-19 00:01N 29°48' W 092°09'2 3.4
2018-Jan-18 23:31N 29°47' W 092°10'611.5
2018-Jan-18 23:00N 29°42' W 092°15'4 0.4
2018-Jan-18 13:48N 29°39' W 092°16'619.6
2018-Jan-18 13:30N 29°44' W 092°14'510.6
2018-Jan-18 13:00N 29°47' W 092°09'0 0.3
2018-Jan-18 12:30N 29°48' W 092°09'0 0.0
2018-Jan-18 12:00N 29°48' W 092°09'0 0.0
2018-Jan-18 11:30N 29°48' W 092°09'0 0.2
2018-Jan-18 10:58N 29°47' W 092°09'0 0.0
2018-Jan-18 10:30N 29°47' W 092°09'0 0.0
2018-Jan-18 10:00N 29°47' W 092°09'0 0.0
2018-Jan-18 09:30N 29°47' W 092°09'0 0.0
2018-Jan-18 09:00N 29°47' W 092°09'3 6.6
2018-Jan-18 08:30N 29°46' W 092°12'612.5
2018-Jan-18 08:00N 29°40' W 092°15'  

Dump ship's entire track history